sensor_id;sensor_type;location;lat;lon;timestamp;P1;durP1;ratioP1;P2;durP2;ratioP2
9884;SDS011;4981;50.966;4.842;2022-07-23T00:00:28;12.87;;;11.23;;
9884;SDS011;4981;50.966;4.842;2022-07-23T00:02:55;16.87;;;10.97;;
9884;SDS011;4981;50.966;4.842;2022-07-23T00:05:24;13.43;;;10.60;;
9884;SDS011;4981;50.966;4.842;2022-07-23T00:07:52;13.43;;;9.87;;
9884;SDS011;4981;50.966;4.842;2022-07-23T00:10:22;13.23;;;10.50;;
9884;SDS011;4981;50.966;4.842;2022-07-23T00:12:49;14.17;;;10.93;;
9884;SDS011;4981;50.966;4.842;2022-07-23T00:15:17;11.90;;;10.60;;
9884;SDS011;4981;50.966;4.842;2022-07-23T00:17:44;15.30;;;10.80;;
9884;SDS011;4981;50.966;4.842;2022-07-23T00:20:12;12.67;;;10.10;;
9884;SDS011;4981;50.966;4.842;2022-07-23T00:22:45;13.60;;;11.10;;
9884;SDS011;4981;50.966;4.842;2022-07-23T00:25:13;13.83;;;10.43;;
9884;SDS011;4981;50.966;4.842;2022-07-23T00:27:43;14.77;;;10.27;;
9884;SDS011;4981;50.966;4.842;2022-07-23T00:30:11;11.80;;;10.37;;
9884;SDS011;4981;50.966;4.842;2022-07-23T00:32:45;13.67;;;10.20;;
9884;SDS011;4981;50.966;4.842;2022-07-23T00:35:13;14.23;;;10.10;;
9884;SDS011;4981;50.966;4.842;2022-07-23T00:37:41;14.17;;;10.03;;
9884;SDS011;4981;50.966;4.842;2022-07-23T00:40:09;15.70;;;10.60;;
9884;SDS011;4981;50.966;4.842;2022-07-23T00:42:38;11.73;;;10.30;;
9884;SDS011;4981;50.966;4.842;2022-07-23T00:45:08;12.03;;;10.57;;
9884;SDS011;4981;50.966;4.842;2022-07-23T00:47:36;13.07;;;10.30;;
9884;SDS011;4981;50.966;4.842;2022-07-23T00:50:04;14.93;;;11.23;;
9884;SDS011;4981;50.966;4.842;2022-07-23T00:52:34;11.57;;;9.87;;
9884;SDS011;4981;50.966;4.842;2022-07-23T00:55:03;11.03;;;9.93;;
9884;SDS011;4981;50.966;4.842;2022-07-23T00:57:31;12.73;;;10.00;;
9884;SDS011;4981;50.966;4.842;2022-07-23T00:59:59;14.33;;;10.47;;
9884;SDS011;4981;50.966;4.842;2022-07-23T01:02:28;12.53;;;10.43;;
9884;SDS011;4981;50.966;4.842;2022-07-23T01:04:56;11.43;;;10.10;;
9884;SDS011;4981;50.966;4.842;2022-07-23T01:07:23;10.80;;;9.70;;
9884;SDS011;4981;50.966;4.842;2022-07-23T01:09:51;12.50;;;10.20;;
9884;SDS011;4981;50.966;4.842;2022-07-23T01:12:19;11.87;;;10.40;;
9884;SDS011;4981;50.966;4.842;2022-07-23T01:14:53;11.47;;;9.80;;
9884;SDS011;4981;50.966;4.842;2022-07-23T01:17:21;12.37;;;10.60;;
9884;SDS011;4981;50.966;4.842;2022-07-23T01:19:50;12.40;;;9.83;;
9884;SDS011;4981;50.966;4.842;2022-07-23T01:22:18;11.57;;;9.90;;
9884;SDS011;4981;50.966;4.842;2022-07-23T01:24:48;13.20;;;10.27;;
9884;SDS011;4981;50.966;4.842;2022-07-23T01:27:15;11.33;;;9.47;;
9884;SDS011;4981;50.966;4.842;2022-07-23T01:29:44;12.60;;;9.43;;
9884;SDS011;4981;50.966;4.842;2022-07-23T01:32:11;10.90;;;9.80;;
9884;SDS011;4981;50.966;4.842;2022-07-23T01:34:41;11.63;;;9.77;;
9884;SDS011;4981;50.966;4.842;2022-07-23T01:37:08;12.93;;;10.50;;
9884;SDS011;4981;50.966;4.842;2022-07-23T01:39:36;14.43;;;9.97;;
9884;SDS011;4981;50.966;4.842;2022-07-23T01:42:06;14.33;;;9.33;;
9884;SDS011;4981;50.966;4.842;2022-07-23T01:44:34;15.13;;;9.87;;
9884;SDS011;4981;50.966;4.842;2022-07-23T01:47:01;12.00;;;10.23;;
9884;SDS011;4981;50.966;4.842;2022-07-23T01:49:29;13.73;;;10.07;;
9884;SDS011;4981;50.966;4.842;2022-07-23T01:51:56;13.27;;;10.30;;
9884;SDS011;4981;50.966;4.842;2022-07-23T01:54:27;12.43;;;10.37;;
9884;SDS011;4981;50.966;4.842;2022-07-23T01:56:55;12.03;;;10.00;;
9884;SDS011;4981;50.966;4.842;2022-07-23T01:59:24;16.67;;;11.23;;
9884;SDS011;4981;50.966;4.842;2022-07-23T02:01:52;12.60;;;10.03;;
9884;SDS011;4981;50.966;4.842;2022-07-23T02:04:20;14.87;;;10.53;;
9884;SDS011;4981;50.966;4.842;2022-07-23T02:06:49;13.20;;;10.10;;
9884;SDS011;4981;50.966;4.842;2022-07-23T02:09:18;13.43;;;9.97;;
9884;SDS011;4981;50.966;4.842;2022-07-23T02:11:45;13.30;;;10.60;;
9884;SDS011;4981;50.966;4.842;2022-07-23T02:14:13;15.53;;;9.90;;
9884;SDS011;4981;50.966;4.842;2022-07-23T02:16:42;11.40;;;9.93;;
9884;SDS011;4981;50.966;4.842;2022-07-23T02:19:09;14.70;;;10.33;;
9884;SDS011;4981;50.966;4.842;2022-07-23T02:21:37;13.30;;;9.80;;
9884;SDS011;4981;50.966;4.842;2022-07-23T02:24:04;12.33;;;10.17;;
9884;SDS011;4981;50.966;4.842;2022-07-23T02:26:32;12.47;;;9.40;;
9884;SDS011;4981;50.966;4.842;2022-07-23T02:29:00;11.50;;;10.27;;
9884;SDS011;4981;50.966;4.842;2022-07-23T02:31:28;12.87;;;10.20;;
9884;SDS011;4981;50.966;4.842;2022-07-23T02:33:57;10.27;;;9.27;;
9884;SDS011;4981;50.966;4.842;2022-07-23T02:36:25;15.47;;;10.30;;
9884;SDS011;4981;50.966;4.842;2022-07-23T02:38:53;14.10;;;9.93;;
9884;SDS011;4981;50.966;4.842;2022-07-23T02:41:21;14.53;;;10.07;;
9884;SDS011;4981;50.966;4.842;2022-07-23T02:43:48;13.70;;;10.37;;
9884;SDS011;4981;50.966;4.842;2022-07-23T02:46:15;11.20;;;9.97;;
9884;SDS011;4981;50.966;4.842;2022-07-23T02:48:43;13.00;;;10.17;;
9884;SDS011;4981;50.966;4.842;2022-07-23T02:51:12;11.40;;;10.20;;
9884;SDS011;4981;50.966;4.842;2022-07-23T02:53:40;11.57;;;9.63;;
9884;SDS011;4981;50.966;4.842;2022-07-23T02:56:08;12.00;;;9.63;;
9884;SDS011;4981;50.966;4.842;2022-07-23T02:58:35;12.93;;;9.73;;
9884;SDS011;4981;50.966;4.842;2022-07-23T03:01:03;12.00;;;9.97;;
9884;SDS011;4981;50.966;4.842;2022-07-23T03:03:33;13.90;;;9.57;;
9884;SDS011;4981;50.966;4.842;2022-07-23T03:06:01;12.47;;;10.27;;
9884;SDS011;4981;50.966;4.842;2022-07-23T03:08:31;13.30;;;9.87;;
9884;SDS011;4981;50.966;4.842;2022-07-23T03:10:59;11.17;;;9.57;;
9884;SDS011;4981;50.966;4.842;2022-07-23T03:13:26;15.43;;;9.97;;
9884;SDS011;4981;50.966;4.842;2022-07-23T03:15:54;11.43;;;10.00;;
9884;SDS011;4981;50.966;4.842;2022-07-23T03:18:22;13.10;;;10.10;;
9884;SDS011;4981;50.966;4.842;2022-07-23T03:20:49;12.73;;;9.97;;
9884;SDS011;4981;50.966;4.842;2022-07-23T03:23:19;11.20;;;10.10;;
9884;SDS011;4981;50.966;4.842;2022-07-23T03:25:48;12.30;;;9.83;;
9884;SDS011;4981;50.966;4.842;2022-07-23T03:28:16;10.73;;;9.63;;
9884;SDS011;4981;50.966;4.842;2022-07-23T03:30:44;14.50;;;10.73;;
9884;SDS011;4981;50.966;4.842;2022-07-23T03:33:12;10.63;;;9.43;;
9884;SDS011;4981;50.966;4.842;2022-07-23T03:35:41;11.53;;;9.97;;
9884;SDS011;4981;50.966;4.842;2022-07-23T03:38:09;11.97;;;9.30;;
9884;SDS011;4981;50.966;4.842;2022-07-23T03:40:36;9.87;;;8.67;;
9884;SDS011;4981;50.966;4.842;2022-07-23T03:43:09;10.80;;;9.57;;
9884;SDS011;4981;50.966;4.842;2022-07-23T03:45:36;11.63;;;9.13;;
9884;SDS011;4981;50.966;4.842;2022-07-23T03:48:04;12.63;;;9.40;;
9884;SDS011;4981;50.966;4.842;2022-07-23T03:50:32;14.00;;;10.10;;
9884;SDS011;4981;50.966;4.842;2022-07-23T03:52:59;10.20;;;9.17;;
9884;SDS011;4981;50.966;4.842;2022-07-23T03:55:27;14.37;;;9.60;;
9884;SDS011;4981;50.966;4.842;2022-07-23T03:57:54;13.50;;;9.33;;
9884;SDS011;4981;50.966;4.842;2022-07-23T04:00:23;12.17;;;10.07;;
9884;SDS011;4981;50.966;4.842;2022-07-23T04:02:51;12.47;;;9.53;;
9884;SDS011;4981;50.966;4.842;2022-07-23T04:05:20;11.07;;;9.90;;
9884;SDS011;4981;50.966;4.842;2022-07-23T04:07:47;12.73;;;9.90;;
9884;SDS011;4981;50.966;4.842;2022-07-23T04:10:18;13.90;;;10.17;;
9884;SDS011;4981;50.966;4.842;2022-07-23T04:12:46;11.73;;;9.73;;
9884;SDS011;4981;50.966;4.842;2022-07-23T04:15:13;11.90;;;9.10;;
9884;SDS011;4981;50.966;4.842;2022-07-23T04:17:43;10.03;;;9.00;;
9884;SDS011;4981;50.966;4.842;2022-07-23T04:20:11;12.20;;;9.60;;
9884;SDS011;4981;50.966;4.842;2022-07-23T04:22:39;13.43;;;9.17;;
9884;SDS011;4981;50.966;4.842;2022-07-23T04:25:07;12.47;;;9.20;;
9884;SDS011;4981;50.966;4.842;2022-07-23T04:27:34;10.73;;;9.43;;
9884;SDS011;4981;50.966;4.842;2022-07-23T04:30:02;14.13;;;10.00;;
9884;SDS011;4981;50.966;4.842;2022-07-23T04:32:30;11.50;;;9.97;;
9884;SDS011;4981;50.966;4.842;2022-07-23T04:34:59;9.97;;;8.63;;
9884;SDS011;4981;50.966;4.842;2022-07-23T04:37:27;13.20;;;9.00;;
9884;SDS011;4981;50.966;4.842;2022-07-23T04:39:55;12.90;;;9.50;;
9884;SDS011;4981;50.966;4.842;2022-07-23T04:42:22;12.67;;;9.90;;
9884;SDS011;4981;50.966;4.842;2022-07-23T04:44:49;12.67;;;9.60;;
9884;SDS011;4981;50.966;4.842;2022-07-23T04:47:20;12.40;;;10.33;;
9884;SDS011;4981;50.966;4.842;2022-07-23T04:49:47;11.03;;;9.90;;
9884;SDS011;4981;50.966;4.842;2022-07-23T04:52:17;14.63;;;11.60;;
9884;SDS011;4981;50.966;4.842;2022-07-23T04:54:44;11.57;;;10.40;;
9884;SDS011;4981;50.966;4.842;2022-07-23T04:57:11;13.37;;;10.40;;
9884;SDS011;4981;50.966;4.842;2022-07-23T04:59:38;11.37;;;9.53;;
9884;SDS011;4981;50.966;4.842;2022-07-23T05:02:09;12.93;;;10.00;;
9884;SDS011;4981;50.966;4.842;2022-07-23T05:04:45;15.17;;;10.63;;
9884;SDS011;4981;50.966;4.842;2022-07-23T05:07:13;13.43;;;11.20;;
9884;SDS011;4981;50.966;4.842;2022-07-23T05:09:42;12.50;;;10.60;;
9884;SDS011;4981;50.966;4.842;2022-07-23T05:12:10;11.57;;;10.37;;
9884;SDS011;4981;50.966;4.842;2022-07-23T05:14:38;6.53;;;5.83;;
9884;SDS011;4981;50.966;4.842;2022-07-23T05:17:05;11.80;;;10.60;;
9884;SDS011;4981;50.966;4.842;2022-07-23T05:19:33;12.77;;;10.43;;
9884;SDS011;4981;50.966;4.842;2022-07-23T05:22:00;12.83;;;10.43;;
9884;SDS011;4981;50.966;4.842;2022-07-23T05:24:28;13.90;;;10.37;;
9884;SDS011;4981;50.966;4.842;2022-07-23T05:26:57;14.27;;;10.73;;
9884;SDS011;4981;50.966;4.842;2022-07-23T05:29:24;14.40;;;10.87;;
9884;SDS011;4981;50.966;4.842;2022-07-23T05:31:52;11.37;;;10.20;;
9884;SDS011;4981;50.966;4.842;2022-07-23T05:34:19;15.50;;;11.30;;
9884;SDS011;4981;50.966;4.842;2022-07-23T05:36:46;12.37;;;10.53;;
9884;SDS011;4981;50.966;4.842;2022-07-23T05:39:15;12.87;;;10.50;;
9884;SDS011;4981;50.966;4.842;2022-07-23T05:41:42;13.30;;;11.10;;
9884;SDS011;4981;50.966;4.842;2022-07-23T05:44:12;12.17;;;10.87;;
9884;SDS011;4981;50.966;4.842;2022-07-23T05:46:39;13.27;;;10.93;;
9884;SDS011;4981;50.966;4.842;2022-07-23T05:49:07;12.20;;;10.43;;
9884;SDS011;4981;50.966;4.842;2022-07-23T05:51:34;11.97;;;10.20;;
9884;SDS011;4981;50.966;4.842;2022-07-23T05:54:02;14.00;;;10.67;;
9884;SDS011;4981;50.966;4.842;2022-07-23T05:56:31;12.37;;;10.27;;
9884;SDS011;4981;50.966;4.842;2022-07-23T05:58:59;11.43;;;10.23;;
9884;SDS011;4981;50.966;4.842;2022-07-23T06:01:28;10.70;;;9.53;;
9884;SDS011;4981;50.966;4.842;2022-07-23T06:03:56;14.13;;;10.23;;
9884;SDS011;4981;50.966;4.842;2022-07-23T06:06:23;14.40;;;9.97;;
9884;SDS011;4981;50.966;4.842;2022-07-23T06:08:51;13.83;;;9.37;;
9884;SDS011;4981;50.966;4.842;2022-07-23T06:11:18;10.60;;;9.60;;
9884;SDS011;4981;50.966;4.842;2022-07-23T06:13:45;13.30;;;10.00;;
9884;SDS011;4981;50.966;4.842;2022-07-23T06:16:13;10.10;;;8.77;;
9884;SDS011;4981;50.966;4.842;2022-07-23T06:18:42;11.07;;;8.37;;
9884;SDS011;4981;50.966;4.842;2022-07-23T06:21:09;11.07;;;9.10;;
9884;SDS011;4981;50.966;4.842;2022-07-23T06:23:37;11.03;;;9.60;;
9884;SDS011;4981;50.966;4.842;2022-07-23T06:26:07;12.87;;;9.07;;
9884;SDS011;4981;50.966;4.842;2022-07-23T06:28:34;13.80;;;9.70;;
9884;SDS011;4981;50.966;4.842;2022-07-23T06:31:02;11.47;;;10.00;;
9884;SDS011;4981;50.966;4.842;2022-07-23T06:33:29;10.60;;;9.43;;
9884;SDS011;4981;50.966;4.842;2022-07-23T06:35:58;11.60;;;10.40;;
9884;SDS011;4981;50.966;4.842;2022-07-23T06:38:26;11.07;;;9.97;;
9884;SDS011;4981;50.966;4.842;2022-07-23T06:40:54;13.50;;;10.63;;
9884;SDS011;4981;50.966;4.842;2022-07-23T06:43:21;12.40;;;11.00;;
9884;SDS011;4981;50.966;4.842;2022-07-23T06:45:49;16.77;;;10.33;;
9884;SDS011;4981;50.966;4.842;2022-07-23T06:48:16;11.10;;;10.00;;
9884;SDS011;4981;50.966;4.842;2022-07-23T06:50:44;12.30;;;9.93;;
9884;SDS011;4981;50.966;4.842;2022-07-23T06:53:13;13.17;;;10.13;;
9884;SDS011;4981;50.966;4.842;2022-07-23T06:55:40;12.47;;;10.77;;
9884;SDS011;4981;50.966;4.842;2022-07-23T06:58:08;12.10;;;10.63;;
9884;SDS011;4981;50.966;4.842;2022-07-23T07:00:36;14.47;;;11.33;;
9884;SDS011;4981;50.966;4.842;2022-07-23T07:03:03;12.47;;;10.87;;
9884;SDS011;4981;50.966;4.842;2022-07-23T07:05:31;12.47;;;11.23;;
9884;SDS011;4981;50.966;4.842;2022-07-23T07:08:13;13.50;;;11.40;;
9884;SDS011;4981;50.966;4.842;2022-07-23T07:10:41;13.20;;;10.93;;
9884;SDS011;4981;50.966;4.842;2022-07-23T07:13:09;13.00;;;10.60;;
9884;SDS011;4981;50.966;4.842;2022-07-23T07:15:36;11.60;;;10.37;;
9884;SDS011;4981;50.966;4.842;2022-07-23T07:18:04;11.80;;;10.57;;
9884;SDS011;4981;50.966;4.842;2022-07-23T07:20:31;13.50;;;11.43;;
9884;SDS011;4981;50.966;4.842;2022-07-23T07:22:59;12.97;;;10.80;;
9884;SDS011;4981;50.966;4.842;2022-07-23T07:25:28;12.63;;;10.73;;
9884;SDS011;4981;50.966;4.842;2022-07-23T07:27:55;12.43;;;10.83;;
9884;SDS011;4981;50.966;4.842;2022-07-23T07:30:23;13.27;;;10.77;;
9884;SDS011;4981;50.966;4.842;2022-07-23T07:32:51;14.00;;;10.47;;
9884;SDS011;4981;50.966;4.842;2022-07-23T07:35:18;11.87;;;10.67;;
9884;SDS011;4981;50.966;4.842;2022-07-23T07:37:46;12.37;;;11.07;;
9884;SDS011;4981;50.966;4.842;2022-07-23T07:40:13;13.03;;;10.57;;
9884;SDS011;4981;50.966;4.842;2022-07-23T07:42:45;12.53;;;9.97;;
9884;SDS011;4981;50.966;4.842;2022-07-23T07:45:16;15.20;;;10.17;;
9884;SDS011;4981;50.966;4.842;2022-07-23T07:47:43;12.73;;;8.93;;
9884;SDS011;4981;50.966;4.842;2022-07-23T07:50:11;11.07;;;9.20;;
9884;SDS011;4981;50.966;4.842;2022-07-23T07:52:39;11.27;;;9.20;;
9884;SDS011;4981;50.966;4.842;2022-07-23T07:55:08;9.50;;;8.33;;
9884;SDS011;4981;50.966;4.842;2022-07-23T07:57:36;12.17;;;8.63;;
9884;SDS011;4981;50.966;4.842;2022-07-23T08:00:07;11.90;;;8.93;;
9884;SDS011;4981;50.966;4.842;2022-07-23T08:02:40;12.20;;;8.80;;
9884;SDS011;4981;50.966;4.842;2022-07-23T08:05:09;13.97;;;10.60;;
9884;SDS011;4981;50.966;4.842;2022-07-23T08:07:36;15.23;;;10.53;;
9884;SDS011;4981;50.966;4.842;2022-07-23T08:10:05;12.37;;;9.50;;
9884;SDS011;4981;50.966;4.842;2022-07-23T08:12:38;14.60;;;10.17;;
9884;SDS011;4981;50.966;4.842;2022-07-23T08:15:12;12.80;;;9.17;;
9884;SDS011;4981;50.966;4.842;2022-07-23T08:17:41;12.23;;;9.40;;
9884;SDS011;4981;50.966;4.842;2022-07-23T08:20:09;10.50;;;8.80;;
9884;SDS011;4981;50.966;4.842;2022-07-23T08:22:42;9.60;;;8.60;;
9884;SDS011;4981;50.966;4.842;2022-07-23T08:25:11;13.60;;;8.17;;
9884;SDS011;4981;50.966;4.842;2022-07-23T08:27:39;8.23;;;6.83;;
9884;SDS011;4981;50.966;4.842;2022-07-23T08:30:07;11.30;;;7.40;;
9884;SDS011;4981;50.966;4.842;2022-07-23T08:32:50;9.80;;;6.90;;
9884;SDS011;4981;50.966;4.842;2022-07-23T08:35:24;8.57;;;6.70;;
9884;SDS011;4981;50.966;4.842;2022-07-23T08:37:54;11.97;;;7.70;;
9884;SDS011;4981;50.966;4.842;2022-07-23T08:40:22;10.27;;;7.10;;
9884;SDS011;4981;50.966;4.842;2022-07-23T08:42:52;3.97;;;3.47;;
9884;SDS011;4981;50.966;4.842;2022-07-23T08:45:20;9.53;;;8.00;;
9884;SDS011;4981;50.966;4.842;2022-07-23T08:47:51;11.13;;;7.07;;
9884;SDS011;4981;50.966;4.842;2022-07-23T08:50:20;2.70;;;2.50;;
9884;SDS011;4981;50.966;4.842;2022-07-23T08:52:49;9.87;;;7.97;;
9884;SDS011;4981;50.966;4.842;2022-07-23T08:55:18;10.00;;;7.60;;
9884;SDS011;4981;50.966;4.842;2022-07-23T08:57:47;10.00;;;8.07;;
9884;SDS011;4981;50.966;4.842;2022-07-23T09:00:16;11.70;;;8.47;;
9884;SDS011;4981;50.966;4.842;2022-07-23T09:02:45;9.67;;;8.67;;
9884;SDS011;4981;50.966;4.842;2022-07-23T09:05:14;13.10;;;8.33;;
9884;SDS011;4981;50.966;4.842;2022-07-23T09:08:03;9.33;;;7.27;;
9884;SDS011;4981;50.966;4.842;2022-07-23T09:10:36;9.70;;;7.50;;
9884;SDS011;4981;50.966;4.842;2022-07-23T09:13:27;9.23;;;7.83;;
9884;SDS011;4981;50.966;4.842;2022-07-23T09:16:02;9.73;;;7.20;;
9884;SDS011;4981;50.966;4.842;2022-07-23T09:18:31;13.07;;;7.43;;
9884;SDS011;4981;50.966;4.842;2022-07-23T09:21:09;10.77;;;7.10;;
9884;SDS011;4981;50.966;4.842;2022-07-23T09:23:48;9.07;;;6.70;;
9884;SDS011;4981;50.966;4.842;2022-07-23T09:26:18;10.30;;;7.10;;
9884;SDS011;4981;50.966;4.842;2022-07-23T09:29:00;10.30;;;7.60;;
9884;SDS011;4981;50.966;4.842;2022-07-23T09:31:33;13.23;;;7.23;;
9884;SDS011;4981;50.966;4.842;2022-07-23T09:34:09;9.67;;;7.60;;
9884;SDS011;4981;50.966;4.842;2022-07-23T09:36:40;7.77;;;6.83;;
9884;SDS011;4981;50.966;4.842;2022-07-23T09:39:10;7.97;;;5.60;;
9884;SDS011;4981;50.966;4.842;2022-07-23T09:41:39;11.40;;;6.87;;
9884;SDS011;4981;50.966;4.842;2022-07-23T09:44:12;2.93;;;2.60;;
9884;SDS011;4981;50.966;4.842;2022-07-23T09:46:41;7.07;;;5.07;;
9884;SDS011;4981;50.966;4.842;2022-07-23T09:49:11;9.02;;;6.32;;
9884;SDS011;4981;50.966;4.842;2022-07-23T09:51:46;7.05;;;5.15;;
9884;SDS011;4981;50.966;4.842;2022-07-23T09:54:22;8.27;;;6.57;;
9884;SDS011;4981;50.966;4.842;2022-07-23T09:56:56;7.50;;;6.57;;
9884;SDS011;4981;50.966;4.842;2022-07-23T09:59:25;7.10;;;5.60;;
9884;SDS011;4981;50.966;4.842;2022-07-23T10:01:58;6.03;;;3.92;;
9884;SDS011;4981;50.966;4.842;2022-07-23T10:04:26;6.28;;;4.68;;
9884;SDS011;4981;50.966;4.842;2022-07-23T10:06:58;7.28;;;5.03;;
9884;SDS011;4981;50.966;4.842;2022-07-23T10:09:27;11.10;;;5.43;;
9884;SDS011;4981;50.966;4.842;2022-07-23T10:11:56;4.65;;;3.88;;
9884;SDS011;4981;50.966;4.842;2022-07-23T10:14:29;8.00;;;5.93;;
9884;SDS011;4981;50.966;4.842;2022-07-23T10:16:58;7.87;;;5.57;;
9884;SDS011;4981;50.966;4.842;2022-07-23T10:19:25;9.32;;;5.90;;
9884;SDS011;4981;50.966;4.842;2022-07-23T10:21:55;8.33;;;6.03;;
9884;SDS011;4981;50.966;4.842;2022-07-23T10:24:30;7.85;;;5.50;;
9884;SDS011;4981;50.966;4.842;2022-07-23T10:27:14;8.07;;;5.93;;
9884;SDS011;4981;50.966;4.842;2022-07-23T10:29:55;5.83;;;5.03;;
9884;SDS011;4981;50.966;4.842;2022-07-23T10:32:35;2.70;;;2.22;;
9884;SDS011;4981;50.966;4.842;2022-07-23T10:35:09;6.68;;;4.50;;
9884;SDS011;4981;50.966;4.842;2022-07-23T10:37:42;5.18;;;3.20;;
9884;SDS011;4981;50.966;4.842;2022-07-23T10:40:13;4.90;;;3.75;;
9884;SDS011;4981;50.966;4.842;2022-07-23T10:42:42;4.53;;;2.60;;
9884;SDS011;4981;50.966;4.842;2022-07-23T10:45:24;6.28;;;3.28;;
9884;SDS011;4981;50.966;4.842;2022-07-23T10:47:53;5.53;;;2.55;;
9884;SDS011;4981;50.966;4.842;2022-07-23T10:50:24;5.05;;;3.05;;
9884;SDS011;4981;50.966;4.842;2022-07-23T10:53:10;8.27;;;3.28;;
9884;SDS011;4981;50.966;4.842;2022-07-23T10:55:40;4.85;;;3.20;;
9884;SDS011;4981;50.966;4.842;2022-07-23T10:58:09;3.10;;;2.10;;
9884;SDS011;4981;50.966;4.842;2022-07-23T11:00:37;2.05;;;1.65;;
9884;SDS011;4981;50.966;4.842;2022-07-23T11:03:05;3.50;;;3.03;;
9884;SDS011;4981;50.966;4.842;2022-07-23T11:05:53;2.70;;;2.30;;
9884;SDS011;4981;50.966;4.842;2022-07-23T11:08:23;2.53;;;2.33;;
9884;SDS011;4981;50.966;4.842;2022-07-23T11:10:54;4.72;;;2.30;;
9884;SDS011;4981;50.966;4.842;2022-07-23T11:13:41;5.65;;;2.10;;
9884;SDS011;4981;50.966;4.842;2022-07-23T11:16:15;3.03;;;1.92;;
9884;SDS011;4981;50.966;4.842;2022-07-23T11:19:07;5.95;;;2.50;;
9884;SDS011;4981;50.966;4.842;2022-07-23T11:21:41;1.52;;;1.42;;
9884;SDS011;4981;50.966;4.842;2022-07-23T11:24:12;3.35;;;2.20;;
9884;SDS011;4981;50.966;4.842;2022-07-23T11:26:44;2.93;;;1.83;;
9884;SDS011;4981;50.966;4.842;2022-07-23T11:32:27;5.03;;;2.00;;
9884;SDS011;4981;50.966;4.842;2022-07-23T11:35:18;3.65;;;1.65;;
9884;SDS011;4981;50.966;4.842;2022-07-23T11:37:52;2.90;;;1.85;;
9884;SDS011;4981;50.966;4.842;2022-07-23T11:40:25;4.22;;;2.00;;
9884;SDS011;4981;50.966;4.842;2022-07-23T11:42:55;2.20;;;1.55;;
9884;SDS011;4981;50.966;4.842;2022-07-23T11:45:25;1.85;;;1.63;;
9884;SDS011;4981;50.966;4.842;2022-07-23T11:47:58;3.38;;;1.80;;
9884;SDS011;4981;50.966;4.842;2022-07-23T11:50:25;1.52;;;1.42;;
9884;SDS011;4981;50.966;4.842;2022-07-23T11:52:53;3.17;;;1.58;;
9884;SDS011;4981;50.966;4.842;2022-07-23T11:55:21;3.45;;;1.95;;
9884;SDS011;4981;50.966;4.842;2022-07-23T11:57:51;2.47;;;1.50;;
9884;SDS011;4981;50.966;4.842;2022-07-23T12:00:23;2.05;;;1.85;;
9884;SDS011;4981;50.966;4.842;2022-07-23T12:02:53;7.55;;;1.60;;
9884;SDS011;4981;50.966;4.842;2022-07-23T12:05:26;11.13;;;2.45;;
9884;SDS011;4981;50.966;4.842;2022-07-23T12:07:55;3.15;;;2.20;;
9884;SDS011;4981;50.966;4.842;2022-07-23T12:10:24;7.65;;;2.00;;
9884;SDS011;4981;50.966;4.842;2022-07-23T12:12:55;3.97;;;2.00;;
9884;SDS011;4981;50.966;4.842;2022-07-23T12:15:25;5.57;;;1.90;;
9884;SDS011;4981;50.966;4.842;2022-07-23T12:17:56;1.48;;;1.38;;
9884;SDS011;4981;50.966;4.842;2022-07-23T12:20:26;3.70;;;2.05;;
9884;SDS011;4981;50.966;4.842;2022-07-23T12:22:56;3.35;;;2.22;;
9884;SDS011;4981;50.966;4.842;2022-07-23T12:25:25;2.97;;;2.17;;
9884;SDS011;4981;50.966;4.842;2022-07-23T12:28:08;2.20;;;1.50;;
9884;SDS011;4981;50.966;4.842;2022-07-23T12:30:37;1.55;;;1.30;;
9884;SDS011;4981;50.966;4.842;2022-07-23T12:33:07;1.73;;;1.30;;
9884;SDS011;4981;50.966;4.842;2022-07-23T12:35:37;3.78;;;1.75;;
9884;SDS011;4981;50.966;4.842;2022-07-23T12:38:07;1.33;;;1.20;;
9884;SDS011;4981;50.966;4.842;2022-07-23T12:40:37;1.30;;;1.20;;
9884;SDS011;4981;50.966;4.842;2022-07-23T12:43:21;2.22;;;1.50;;
9884;SDS011;4981;50.966;4.842;2022-07-23T12:45:50;1.83;;;1.45;;
9884;SDS011;4981;50.966;4.842;2022-07-23T12:48:21;1.42;;;1.20;;
9884;SDS011;4981;50.966;4.842;2022-07-23T12:50:53;2.35;;;1.80;;
9884;SDS011;4981;50.966;4.842;2022-07-23T12:53:23;4.18;;;1.95;;
9884;SDS011;4981;50.966;4.842;2022-07-23T12:55:57;2.00;;;1.80;;
9884;SDS011;4981;50.966;4.842;2022-07-23T12:58:38;3.70;;;1.80;;
9884;SDS011;4981;50.966;4.842;2022-07-23T13:01:07;2.90;;;1.88;;
9884;SDS011;4981;50.966;4.842;2022-07-23T13:03:36;3.90;;;1.77;;
9884;SDS011;4981;50.966;4.842;2022-07-23T13:06:06;3.38;;;1.70;;
9884;SDS011;4981;50.966;4.842;2022-07-23T13:08:35;3.22;;;1.63;;
9884;SDS011;4981;50.966;4.842;2022-07-23T13:11:05;2.85;;;1.70;;
9884;SDS011;4981;50.966;4.842;2022-07-23T13:13:34;2.88;;;1.92;;
9884;SDS011;4981;50.966;4.842;2022-07-23T13:16:03;4.22;;;1.98;;
9884;SDS011;4981;50.966;4.842;2022-07-23T13:18:30;2.22;;;1.63;;
9884;SDS011;4981;50.966;4.842;2022-07-23T13:20:58;3.50;;;1.60;;
9884;SDS011;4981;50.966;4.842;2022-07-23T13:23:29;2.45;;;1.70;;
9884;SDS011;4981;50.966;4.842;2022-07-23T13:25:56;2.80;;;1.67;;
9884;SDS011;4981;50.966;4.842;2022-07-23T13:28:24;5.75;;;1.90;;
9884;SDS011;4981;50.966;4.842;2022-07-23T13:30:56;2.97;;;1.88;;
9884;SDS011;4981;50.966;4.842;2022-07-23T13:33:25;2.53;;;1.80;;
9884;SDS011;4981;50.966;4.842;2022-07-23T13:35:53;3.20;;;1.77;;
9884;SDS011;4981;50.966;4.842;2022-07-23T13:38:20;3.08;;;1.77;;
9884;SDS011;4981;50.966;4.842;2022-07-23T13:40:48;2.33;;;1.85;;
9884;SDS011;4981;50.966;4.842;2022-07-23T13:43:17;2.78;;;1.52;;
9884;SDS011;4981;50.966;4.842;2022-07-23T13:45:47;3.90;;;1.80;;
9884;SDS011;4981;50.966;4.842;2022-07-23T13:48:17;3.25;;;2.10;;
9884;SDS011;4981;50.966;4.842;2022-07-23T13:50:45;1.50;;;1.40;;
9884;SDS011;4981;50.966;4.842;2022-07-23T13:53:14;13.05;;;2.35;;
9884;SDS011;4981;50.966;4.842;2022-07-23T13:55:43;2.42;;;1.65;;
9884;SDS011;4981;50.966;4.842;2022-07-23T13:58:11;2.47;;;2.08;;
9884;SDS011;4981;50.966;4.842;2022-07-23T14:00:40;2.50;;;1.83;;
9884;SDS011;4981;50.966;4.842;2022-07-23T14:03:11;2.70;;;1.98;;
9884;SDS011;4981;50.966;4.842;2022-07-23T14:05:41;4.38;;;2.33;;
9884;SDS011;4981;50.966;4.842;2022-07-23T14:08:09;2.00;;;1.80;;
9884;SDS011;4981;50.966;4.842;2022-07-23T14:10:37;3.97;;;2.10;;
9884;SDS011;4981;50.966;4.842;2022-07-23T14:13:04;2.35;;;2.00;;
9884;SDS011;4981;50.966;4.842;2022-07-23T14:15:32;2.58;;;2.00;;
9884;SDS011;4981;50.966;4.842;2022-07-23T14:17:59;4.60;;;2.10;;
9884;SDS011;4981;50.966;4.842;2022-07-23T14:20:27;2.75;;;2.22;;
9884;SDS011;4981;50.966;4.842;2022-07-23T14:22:56;4.35;;;2.45;;
9884;SDS011;4981;50.966;4.842;2022-07-23T14:25:28;4.28;;;2.20;;
9884;SDS011;4981;50.966;4.842;2022-07-23T14:27:56;4.80;;;1.90;;
9884;SDS011;4981;50.966;4.842;2022-07-23T14:30:24;2.28;;;1.83;;
9884;SDS011;4981;50.966;4.842;2022-07-23T14:32:51;1.55;;;1.45;;
9884;SDS011;4981;50.966;4.842;2022-07-23T14:35:19;3.05;;;1.58;;
9884;SDS011;4981;50.966;4.842;2022-07-23T14:37:46;3.13;;;2.58;;
9884;SDS011;4981;50.966;4.842;2022-07-23T14:40:15;1.45;;;1.35;;
9884;SDS011;4981;50.966;4.842;2022-07-23T14:42:42;3.08;;;2.30;;
9884;SDS011;4981;50.966;4.842;2022-07-23T14:45:10;3.08;;;2.00;;
9884;SDS011;4981;50.966;4.842;2022-07-23T14:47:38;1.95;;;1.60;;
9884;SDS011;4981;50.966;4.842;2022-07-23T14:50:05;6.13;;;2.25;;
9884;SDS011;4981;50.966;4.842;2022-07-23T14:52:33;2.92;;;2.30;;
9884;SDS011;4981;50.966;4.842;2022-07-23T14:55:00;5.07;;;2.10;;
9884;SDS011;4981;50.966;4.842;2022-07-23T14:57:29;1.60;;;1.50;;
9884;SDS011;4981;50.966;4.842;2022-07-23T14:59:57;3.55;;;1.70;;
9884;SDS011;4981;50.966;4.842;2022-07-23T15:02:24;2.17;;;1.70;;
9884;SDS011;4981;50.966;4.842;2022-07-23T15:04:52;1.80;;;1.70;;
9884;SDS011;4981;50.966;4.842;2022-07-23T15:07:20;1.80;;;1.70;;
9884;SDS011;4981;50.966;4.842;2022-07-23T15:09:47;2.25;;;1.70;;
9884;SDS011;4981;50.966;4.842;2022-07-23T15:12:14;2.25;;;2.05;;
9884;SDS011;4981;50.966;4.842;2022-07-23T15:14:43;1.60;;;1.50;;
9884;SDS011;4981;50.966;4.842;2022-07-23T15:17:11;3.13;;;2.25;;
9884;SDS011;4981;50.966;4.842;2022-07-23T15:19:38;3.10;;;2.20;;